Time;durP1;ratioP1;P1;durP2;ratioP2;P2;SDS_P1;SDS_P2;PMS_P1;PMS_P2;Temp;Humidity;BMP_temperature;BMP_pressure;BME280_temperature;BME280_humidity;BME280_pressure;Samples;Min_cycle;Max_cycle;Signal;HPM_P1;HPM_P2
2022/05/14 00:00:54;;;;;;;10.13;3.60;;;;;;;15.51;51.02;101979.69;5010983;28;20474;-62
2022/05/14 00:03:19;;;;;;;11.93;3.83;;;;;;;15.52;51.09;101972.13;5015392;28;20520;-62
2022/05/14 00:05:45;;;;;;;11.27;3.80;;;;;;;15.49;50.92;101981.91;5017860;28;20038;-62
2022/05/14 00:08:12;;;;;;;10.63;3.47;;;;;;;15.44;50.78;101981.81;5010525;28;20022;-62
2022/05/14 00:13:21;;;;;;;10.07;3.63;;;;;;;15.55;50.83;101980.84;5012051;28;20064;-62
2022/05/14 00:15:46;;;;;;;10.30;3.80;;;;;;;15.50;50.86;101979.94;5010936;28;20049;-62
2022/05/14 00:18:12;;;;;;;9.35;4.13;;;;;;;15.39;51.32;101974.19;5015224;28;20029;-62
2022/05/14 00:20:38;;;;;;;9.45;3.70;;;;;;;15.42;50.87;101976.50;5022325;28;20045;-62
2022/05/14 00:23:05;;;;;;;7.15;3.53;;;;;;;15.37;51.18;101982.03;5010987;28;20022;-62
2022/05/14 00:25:35;;;;;;;12.95;3.65;;;;;;;15.40;51.17;101981.47;5011986;28;20040;-62
2022/05/14 00:28:00;;;;;;;13.55;4.05;;;;;;;15.36;51.56;101971.06;5012917;28;20074;-62
2022/05/14 00:30:27;;;;;;;9.23;4.28;;;;;;;15.34;51.48;101964.91;5010100;28;20065;-62
2022/05/14 00:32:56;;;;;;;9.50;4.15;;;;;;;15.26;51.63;101966.19;5012936;28;20062;-62
2022/05/14 00:35:21;;;;;;;14.05;4.47;;;;;;;15.24;51.86;101965.59;5012477;28;20046;-62
2022/05/14 00:37:47;;;;;;;13.80;4.43;;;;;;;15.25;51.82;101967.31;5011845;28;20034;-62
2022/05/14 00:40:17;;;;;;;15.23;4.75;;;;;;;15.20;51.95;101962.47;5009948;28;20141;-62
2022/05/14 00:42:42;;;;;;;9.75;4.53;;;;;;;15.12;52.29;101960.09;5015137;28;20037;-62
2022/05/14 00:45:09;;;;;;;15.15;4.78;;;;;;;15.08;52.33;101967.31;5011752;28;20405;-62
2022/05/14 00:47:38;;;;;;;13.05;4.75;;;;;;;15.11;51.95;101964.00;5012471;28;20165;-62
2022/05/14 00:50:32;;;;;;;9.10;4.22;;;;;;;15.16;52.03;101964.06;5011251;28;20034;-62
2022/05/14 00:53:22;;;;;;;15.43;4.90;;;;;;;15.10;52.20;101961.47;5018014;28;20037;-62
2022/05/14 00:55:51;;;;;;;10.18;4.55;;;;;;;15.00;52.28;101961.31;5012725;28;20463;-62
2022/05/14 00:58:36;;;;;;;14.15;5.03;;;;;;;15.01;52.13;101966.63;5010586;28;20060;-62
2022/05/14 01:01:01;;;;;;;10.35;4.47;;;;;;;15.00;52.07;101956.56;5010394;28;20374;-62
2022/05/14 01:03:27;;;;;;;10.80;4.38;;;;;;;15.02;52.09;101964.72;5011993;28;20075;-62
2022/05/14 01:05:54;;;;;;;11.55;5.10;;;;;;;15.01;52.22;101963.00;5011403;28;20090;-62
2022/05/14 01:08:20;;;;;;;11.52;4.40;;;;;;;14.91;52.42;101967.34;5011190;28;20113;-62
2022/05/14 01:10:46;;;;;;;9.57;4.20;;;;;;;14.89;52.18;101963.09;5011061;28;20046;-62
2022/05/14 01:13:13;;;;;;;11.70;3.80;;;;;;;14.84;51.99;101974.19;5011099;28;20164;-62
2022/05/14 01:16:07;;;;;;;12.07;3.97;;;;;;;14.85;52.07;101971.13;5010840;28;20042;-62
2022/05/14 01:18:35;;;;;;;10.55;4.35;;;;;;;14.80;52.54;101962.69;5011387;28;20049;-62
2022/05/14 01:21:11;;;;;;;10.98;4.20;;;;;;;14.73;52.44;101971.22;5025115;28;20469;-62
2022/05/14 01:26:36;;;;;;;9.43;4.07;;;;;;;14.79;52.26;101963.78;5019730;28;20390;-62
2022/05/14 01:29:07;;;;;;;8.77;3.58;;;;;;;14.69;52.33;101964.44;5011994;28;20100;-62
2022/05/14 01:31:34;;;;;;;7.70;4.07;;;;;;;14.71;52.07;101962.25;5010918;28;20109;-62
2022/05/14 01:34:07;;;;;;;13.32;3.83;;;;;;;14.59;52.22;101963.44;5020561;28;20440;-62
2022/05/14 01:36:34;;;;;;;9.00;3.58;;;;;;;14.53;52.45;101959.69;5027311;28;20049;-62
2022/05/14 01:38:59;;;;;;;7.50;3.58;;;;;;;14.48;52.58;101960.44;5010353;28;20076;-62
2022/05/14 01:41:25;;;;;;;12.00;4.05;;;;;;;14.51;52.08;101966.66;5010994;28;20054;-62
2022/05/14 01:43:51;;;;;;;9.00;3.28;;;;;;;14.47;51.66;101955.09;5010614;28;20358;-62
2022/05/14 01:46:17;;;;;;;7.82;2.88;;;;;;;14.55;51.41;101967.84;5016726;28;20038;-62
2022/05/14 01:48:43;;;;;;;8.70;3.40;;;;;;;14.47;51.87;101964.34;5031251;28;20164;-62
2022/05/14 01:51:08;;;;;;;6.93;2.60;;;;;;;14.45;51.70;101969.31;5030902;28;20105;-62
2022/05/14 01:53:33;;;;;;;9.15;2.92;;;;;;;14.55;51.01;101976.22;5030097;28;20026;-61
2022/05/14 01:55:58;;;;;;;10.20;3.10;;;;;;;14.53;51.13;101975.63;5031344;28;20642;-61
2022/05/14 01:58:37;;;;;;;10.65;3.15;;;;;;;14.54;51.26;101974.50;5016669;28;20065;-61
2022/05/14 02:01:16;;;;;;;6.25;2.65;;;;;;;14.53;50.85;101975.63;5009627;28;20084;-61
2022/05/14 02:03:44;;;;;;;9.15;3.20;;;;;;;14.43;51.29;101977.09;5011286;28;20371;-61
2022/05/14 02:06:14;;;;;;;7.68;3.28;;;;;;;14.45;51.11;101968.47;5011562;28;20437;-61
2022/05/14 02:08:39;;;;;;;8.88;3.20;;;;;;;14.42;51.22;101974.56;5010623;28;20374;-61
2022/05/14 02:11:05;;;;;;;8.27;3.17;;;;;;;14.34;51.04;101973.00;5009650;28;20034;-61
2022/05/14 02:13:31;;;;;;;7.47;3.22;;;;;;;14.29;51.51;101978.50;5010971;28;20393;-61
2022/05/14 02:15:57;;;;;;;7.85;3.53;;;;;;;14.35;51.22;101971.94;5011593;28;20033;-61
2022/05/14 02:18:23;;;;;;;9.88;3.50;;;;;;;14.28;51.56;101973.19;5009753;28;20779;-61
2022/05/14 02:20:48;;;;;;;7.90;3.17;;;;;;;14.25;51.27;101971.72;5011089;28;20038;-61
2022/05/14 02:23:15;;;;;;;7.75;3.13;;;;;;;14.26;51.53;101973.41;5009619;28;20492;-61
2022/05/14 02:25:41;;;;;;;7.65;3.45;;;;;;;14.18;51.34;101973.81;5010533;28;20112;-61
2022/05/14 02:28:07;;;;;;;7.95;3.30;;;;;;;14.25;51.49;101977.31;5010282;28;20080;-61
2022/05/14 02:30:32;;;;;;;9.95;3.08;;;;;;;14.18;51.32;101968.25;5010354;28;20491;-61
2022/05/14 02:32:57;;;;;;;11.55;3.33;;;;;;;14.19;51.61;101975.53;5016517;28;20119;-61
2022/05/14 02:35:23;;;;;;;9.23;3.45;;;;;;;14.18;51.25;101973.81;5033805;28;20155;-61
2022/05/14 02:37:48;;;;;;;8.90;3.47;;;;;;;14.11;51.37;101973.13;5018590;28;20037;-61
2022/05/14 02:40:14;;;;;;;9.80;3.78;;;;;;;14.10;51.62;101977.88;5014536;28;20117;-61
2022/05/14 02:42:39;;;;;;;9.93;3.47;;;;;;;14.00;51.58;101983.25;5013043;28;20750;-61
2022/05/14 02:45:05;;;;;;;7.95;3.40;;;;;;;13.98;51.90;101977.91;5014847;28;20037;-61
2022/05/14 02:47:31;;;;;;;8.90;3.30;;;;;;;14.01;51.98;101976.56;5013995;28;20062;-61
2022/05/14 02:49:57;;;;;;;7.78;3.35;;;;;;;13.91;51.92;101977.25;5024266;28;20567;-61
2022/05/14 02:52:23;;;;;;;7.22;3.05;;;;;;;13.93;52.08;101986.19;5014482;28;20551;-61
2022/05/14 02:54:49;;;;;;;9.80;3.25;;;;;;;13.93;52.28;101979.75;5014740;28;20053;-61
2022/05/14 02:57:15;;;;;;;8.85;2.80;;;;;;;13.90;51.87;101980.25;5013883;28;20147;-61
2022/05/14 02:59:40;;;;;;;9.02;3.53;;;;;;;13.82;52.00;101987.06;5012249;28;20030;-61
2022/05/14 03:02:05;;;;;;;7.40;3.22;;;;;;;13.82;52.02;101980.66;5012454;28;20029;-61
2022/05/14 03:04:36;;;;;;;11.82;3.78;;;;;;;13.79;52.05;101976.41;5023365;28;20053;-61
2022/05/14 03:07:03;;;;;;;8.50;3.33;;;;;;;13.77;52.13;101977.75;5014347;28;20076;-61
2022/05/14 03:09:28;;;;;;;9.18;3.17;;;;;;;13.73;52.36;101986.63;5014322;28;20083;-61
2022/05/14 03:11:53;;;;;;;9.48;3.55;;;;;;;13.76;52.15;101988.06;5011743;28;20037;-60
2022/05/14 03:14:19;;;;;;;7.82;3.95;;;;;;;13.79;52.27;101979.19;5014160;28;20493;-61
2022/05/14 03:16:44;;;;;;;6.28;2.88;;;;;;;13.74;52.42;101976.31;5013045;28;20080;-62
2022/05/14 03:19:11;;;;;;;8.18;3.67;;;;;;;13.72;52.25;101978.50;5013142;28;20434;-62
2022/05/14 03:21:37;;;;;;;8.30;3.28;;;;;;;13.71;52.63;101969.25;5014204;28;20108;-62
2022/05/14 03:24:03;;;;;;;9.50;3.50;;;;;;;13.57;52.62;101975.38;5014022;28;20061;-62
2022/05/14 03:26:28;;;;;;;9.65;3.60;;;;;;;13.61;52.49;101977.44;5009983;28;20061;-62
2022/05/14 03:28:54;;;;;;;8.90;3.70;;;;;;;13.56;52.69;101968.97;5012883;28;20057;-61
2022/05/14 03:31:19;;;;;;;6.68;3.40;;;;;;;13.56;52.67;101971.75;5012921;28;20049;-62
2022/05/14 03:33:45;;;;;;;4.93;3.10;;;;;;;13.51;53.03;101980.84;5012507;28;20424;-62
2022/05/14 03:36:10;;;;;;;6.95;3.22;;;;;;;13.56;52.51;101977.34;5012011;28;20030;-62
2022/05/14 03:38:36;;;;;;;12.57;3.88;;;;;;;13.55;53.01;101980.34;5012641;28;20095;-62
2022/05/14 03:41:05;;;;;;;8.70;3.60;;;;;;;13.49;52.76;101969.09;5013229;28;20026;-62
2022/05/14 03:43:31;;;;;;;10.13;3.30;;;;;;;13.41;53.32;101975.06;5013523;28;20026;-62
2022/05/14 03:45:57;;;;;;;13.35;3.33;;;;;;;13.37;53.06;101973.00;5012852;28;20108;-62
2022/05/14 03:48:22;;;;;;;11.60;3.35;;;;;;;13.34;53.63;101977.13;5013166;28;20675;-62
2022/05/14 03:50:48;;;;;;;12.70;4.15;;;;;;;13.35;53.40;101973.22;5032979;28;20041;-62
2022/05/14 03:53:13;;;;;;;8.65;3.13;;;;;;;13.31;53.26;101979.53;5028964;28;20029;-61
2022/05/14 03:55:38;;;;;;;9.05;3.33;;;;;;;13.30;53.46;101978.69;5013395;28;20065;-62
2022/05/14 03:58:04;;;;;;;11.27;3.63;;;;;;;13.31;53.46;101976.75;5011933;28;20021;-62
2022/05/14 04:00:29;;;;;;;7.65;3.60;;;;;;;13.33;53.75;101972.63;5011449;28;20768;-61
2022/05/14 04:02:55;;;;;;;11.32;3.83;;;;;;;13.31;53.37;101976.75;5013299;28;20478;-61
2022/05/14 04:05:20;;;;;;;9.00;3.58;;;;;;;13.31;53.63;101988.75;5013214;28;20053;-62
2022/05/14 04:07:47;;;;;;;10.68;3.75;;;;;;;13.27;53.95;101984.75;5012103;28;20029;-62
2022/05/14 04:10:12;;;;;;;13.80;3.92;;;;;;;13.31;53.56;101983.16;5012375;28;20022;-61
2022/05/14 04:12:39;;;;;;;8.90;4.10;;;;;;;13.38;53.64;101989.47;5013093;28;20055;-62
2022/05/14 04:15:06;;;;;;;8.77;3.72;;;;;;;13.23;54.08;101986.34;5012173;28;20049;-61
2022/05/14 04:17:31;;;;;;;9.35;3.65;;;;;;;13.20;53.90;101989.56;5012087;28;20470;-62
2022/05/14 04:19:57;;;;;;;10.50;3.70;;;;;;;13.31;54.15;102001.84;5012981;28;20033;-62
2022/05/14 04:22:25;;;;;;;8.85;3.42;;;;;;;13.17;54.32;101984.50;5012082;28;20037;-62
2022/05/14 04:24:50;;;;;;;7.55;3.45;;;;;;;13.17;54.42;101990.06;5011537;28;20030;-62
2022/05/14 04:27:15;;;;;;;8.25;3.92;;;;;;;13.22;53.96;101988.25;5012841;28;20104;-62
2022/05/14 04:29:41;;;;;;;10.60;4.15;;;;;;;13.12;54.51;101989.94;5011897;28;20096;-61
2022/05/14 04:32:07;;;;;;;10.05;4.32;;;;;;;13.08;54.47;101991.50;5011874;28;20044;-62
2022/05/14 04:34:32;;;;;;;8.77;4.13;;;;;;;13.27;54.56;101990.31;5011608;28;20489;-61
2022/05/14 04:36:57;;;;;;;9.82;4.00;;;;;;;13.26;54.63;101989.47;5011225;28;20041;-61
2022/05/14 04:39:31;;;;;;;10.30;3.60;;;;;;;13.19;54.53;101990.66;5011479;28;20505;-62
2022/05/14 04:41:58;;;;;;;11.88;3.88;;;;;;;13.23;54.58;101997.47;5009497;28;20034;-61
2022/05/14 04:44:23;;;;;;;8.95;3.70;;;;;;;13.21;54.36;101994.06;5016498;28;20021;-61
2022/05/14 04:46:49;;;;;;;11.40;4.13;;;;;;;13.21;54.39;101989.34;5032062;28;20060;-62
2022/05/14 04:49:14;;;;;;;7.90;3.78;;;;;;;13.19;54.67;101985.94;5010418;28;20030;-62
2022/05/14 04:51:40;;;;;;;9.75;3.80;;;;;;;13.15;54.92;102003.41;5012491;28;20034;-61
2022/05/14 04:54:05;;;;;;;12.68;4.38;;;;;;;13.12;55.26;102004.72;5011182;28;20034;-62
2022/05/14 04:56:30;;;;;;;13.30;4.07;;;;;;;13.12;55.33;102001.09;5011171;28;20048;-61
2022/05/14 04:58:55;;;;;;;13.23;4.32;;;;;;;13.07;55.32;101995.41;5023729;28;20048;-62
2022/05/14 05:01:21;;;;;;;12.65;4.53;;;;;;;13.14;55.05;102001.72;5016538;28;20060;-62
2022/05/14 05:03:46;;;;;;;12.50;3.90;;;;;;;13.11;55.76;102002.19;5011000;28;20041;-62
2022/05/14 05:06:14;;;;;;;12.48;4.93;;;;;;;13.10;55.95;102001.34;5011490;28;20057;-62
2022/05/14 05:08:40;;;;;;;11.18;4.40;;;;;;;13.20;55.37;102006.28;5011838;28;20038;-61
2022/05/14 05:11:05;;;;;;;9.00;4.45;;;;;;;13.16;55.48;102016.22;5010116;28;20033;-62
2022/05/14 05:13:31;;;;;;;9.88;4.70;;;;;;;13.14;55.81;102007.28;5010801;28;20033;-61
2022/05/14 05:15:57;;;;;;;13.30;4.65;;;;;;;13.20;55.68;102007.16;5026644;28;20033;-62
2022/05/14 05:18:23;;;;;;;12.27;4.88;;;;;;;13.17;55.80;102004.00;5003827;28;20548;-62
2022/05/14 05:20:49;;;;;;;11.10;5.28;;;;;;;13.16;56.31;102019.03;5008174;28;20113;-62
2022/05/14 05:23:18;;;;;;;10.65;5.25;;;;;;;13.15;56.16;102015.38;5008528;28;20416;-62
2022/05/14 05:25:45;;;;;;;11.57;4.68;;;;;;;13.22;56.58;102020.84;5009140;28;20029;-62
2022/05/14 05:28:10;;;;;;;12.77;5.13;;;;;;;13.32;56.51;102009.13;5008441;28;20492;-61
2022/05/14 05:30:36;;;;;;;11.55;4.72;;;;;;;13.32;56.69;102014.69;5019576;28;20049;-61
2022/05/14 05:33:01;;;;;;;11.25;5.13;;;;;;;13.38;56.14;102016.53;5009573;28;20041;-61
2022/05/14 05:35:27;;;;;;;14.30;5.72;;;;;;;13.37;56.53;102017.63;5010246;28;20050;-61
2022/05/14 05:37:52;;;;;;;16.52;5.95;;;;;;;13.40;56.99;102031.94;5011553;28;20036;-61
2022/05/14 05:40:17;;;;;;;12.07;6.07;;;;;;;13.45;56.76;102031.19;5009921;28;20065;-61
2022/05/14 05:42:44;;;;;;;11.18;6.00;;;;;;;13.53;56.69;102032.75;5011479;28;20029;-60
2022/05/14 05:45:11;;;;;;;15.20;6.65;;;;;;;13.54;56.81;102028.88;5009670;28;20062;-61
2022/05/14 05:47:36;;;;;;;12.68;5.93;;;;;;;13.62;56.81;102042.44;5010176;28;20048;-61
2022/05/14 05:50:02;;;;;;;14.80;6.15;;;;;;;13.70;56.86;102030.91;5006690;28;20067;-61
2022/05/14 05:52:28;;;;;;;17.80;6.70;;;;;;;13.81;56.73;102030.03;5009945;28;20037;-61
2022/05/14 05:57:39;;;;;;;17.63;6.93;;;;;;;13.94;57.15;102040.06;5011813;28;20080;-62
2022/05/14 06:00:09;;;;;;;15.45;6.93;;;;;;;14.00;56.77;102036.31;5010189;28;20033;-62
2022/05/14 06:02:35;;;;;;;18.00;6.70;;;;;;;14.17;56.68;102037.19;5004141;28;20492;-62
2022/05/14 06:05:00;;;;;;;13.07;7.05;;;;;;;14.17;57.26;102045.59;5010751;28;20026;-62
2022/05/14 06:07:26;;;;;;;16.17;7.03;;;;;;;14.33;56.80;102045.88;5012765;28;20070;-62
2022/05/14 06:09:51;;;;;;;21.17;7.80;;;;;;;14.40;56.81;102038.22;5012299;28;20041;-62
2022/05/14 06:12:16;;;;;;;18.25;7.28;;;;;;;14.50;56.43;102035.63;5012365;28;20497;-62
2022/05/14 06:14:43;;;;;;;16.38;7.47;;;;;;;14.59;56.47;102036.09;5013106;28;20037;-63
2022/05/14 06:17:08;;;;;;;17.90;7.97;;;;;;;14.63;56.81;102040.94;5013090;28;20037;-62
2022/05/14 06:19:33;;;;;;;17.70;7.72;;;;;;;14.70;56.41;102051.94;5013962;28;20034;-62
2022/05/14 06:21:58;;;;;;;20.00;8.10;;;;;;;14.81;56.08;102051.00;5025392;28;20042;-62
2022/05/14 06:24:24;;;;;;;18.58;8.10;;;;;;;14.83;56.67;102046.03;5034528;28;20037;-62
2022/05/14 06:26:49;;;;;;;17.42;7.63;;;;;;;14.92;56.54;102047.28;5034723;28;20037;-62
2022/05/14 06:29:21;;;;;;;18.88;8.27;;;;;;;14.96;56.33;102045.69;5033593;28;20037;-62
2022/05/14 06:31:47;;;;;;;;;;;;;;;15.23;54.99;102053.41;5035187;28;20068;-62
2022/05/14 06:34:12;;;;;;;15.07;7.23;;;;;;;15.25;56.02;102062.41;5033900;28;19945;-62
2022/05/14 06:36:37;;;;;;;13.27;7.28;;;;;;;15.38;55.92;102066.78;5020802;28;20346;-62
2022/05/14 06:39:03;;;;;;;15.40;7.90;;;;;;;15.48;55.57;102069.72;5013402;28;20458;-62
2022/05/14 06:41:28;;;;;;;19.50;8.35;;;;;;;15.47;55.77;102068.88;5013257;28;20071;-62
2022/05/14 06:43:53;;;;;;;21.38;8.45;;;;;;;15.52;55.83;102078.47;5012977;28;20079;-62
2022/05/14 06:46:18;;;;;;;17.98;8.40;;;;;;;15.58;55.56;102067.09;5013553;28;20449;-62
2022/05/14 06:48:44;;;;;;;20.55;8.48;;;;;;;15.68;55.37;102072.03;5012675;28;20052;-62
2022/05/14 06:51:16;;;;;;;17.20;8.38;;;;;;;15.75;55.60;102077.44;5022366;28;20502;-62
2022/05/14 06:53:42;;;;;;;18.38;8.88;;;;;;;15.77;55.62;102070.50;5033035;28;20044;-62
2022/05/14 06:56:08;;;;;;;19.60;9.07;;;;;;;15.76;55.48;102067.94;5032492;28;20481;-62
2022/05/14 06:58:38;;;;;;;18.65;9.65;;;;;;;15.78;55.51;102066.56;5032993;28;20033;-62
2022/05/14 07:01:05;;;;;;;21.70;9.73;;;;;;;15.85;56.16;102064.44;5019401;28;20120;-61
2022/05/14 07:09:10;;;;;;;17.77;8.82;;;;;;;16.16;55.26;102071.28;5015618;28;20045;-62
2022/05/14 07:11:37;;;;;;;19.25;9.90;;;;;;;16.14;55.86;102062.28;5013071;28;20030;-62
2022/05/14 07:14:03;;;;;;;18.88;9.07;;;;;;;16.29;55.57;102063.59;5013049;28;20672;-62
2022/05/14 07:16:28;;;;;;;22.70;9.43;;;;;;;16.25;55.82;102060.47;5012888;28;20026;-62
2022/05/14 07:18:54;;;;;;;17.15;9.70;;;;;;;16.40;55.00;102071.84;5017002;28;20036;-62
2022/05/14 07:21:19;;;;;;;20.23;9.98;;;;;;;16.48;55.33;102070.53;5012637;28;20045;-62
2022/05/14 07:23:44;;;;;;;25.27;9.02;;;;;;;16.57;54.96;102071.75;5012150;28;20718;-62
2022/05/14 07:26:10;;;;;;;20.33;9.90;;;;;;;16.67;54.82;102071.03;5012468;28;20140;-62
2022/05/14 07:28:36;;;;;;;23.63;9.32;;;;;;;16.72;54.61;102071.06;5011722;28;20049;-61
2022/05/14 07:31:03;;;;;;;24.08;9.93;;;;;;;16.85;54.33;102062.25;5011515;28;20770;-62
2022/05/14 07:33:29;;;;;;;24.75;10.20;;;;;;;16.93;54.75;102069.34;4985374;28;1005272;-63
2022/05/14 07:36:00;;;;;;;20.52;10.02;;;;;;;17.00;54.65;102071.94;5017408;28;20054;-62
2022/05/14 07:38:25;;;;;;;15.80;7.90;;;;;;;17.19;54.56;102073.22;5010526;28;20042;-62
2022/05/14 07:40:51;;;;;;;17.35;9.23;;;;;;;17.24;54.13;102075.22;5012264;28;20394;-63
2022/05/14 07:43:22;;;;;;;24.27;9.90;;;;;;;17.25;54.09;102068.47;5012804;28;20120;-62
2022/05/14 07:45:53;;;;;;;24.15;9.98;;;;;;;17.31;53.29;102068.25;5010548;28;20087;-61
2022/05/14 07:48:24;;;;;;;19.85;9.55;;;;;;;17.42;53.30;102069.19;5014431;28;20049;-61
2022/05/14 07:50:52;;;;;;;22.98;9.98;;;;;;;17.50;53.61;102076.28;5014139;28;20034;-61
2022/05/14 07:53:18;;;;;;;18.98;9.43;;;;;;;17.58;53.50;102075.75;5012742;28;20033;-61
2022/05/14 07:55:44;;;;;;;21.27;9.95;;;;;;;17.52;53.33;102074.03;5013126;28;20018;-61
2022/05/14 07:58:10;;;;;;;18.80;9.05;;;;;;;17.66;53.35;102073.28;5013652;28;20026;-61
2022/05/14 08:00:36;;;;;;;17.85;9.77;;;;;;;17.75;52.70;102070.00;5012397;28;20018;-59
2022/05/14 08:03:03;;;;;;;23.35;9.73;;;;;;;17.84;52.74;102068.34;5013441;28;20034;-59
2022/05/14 08:05:31;;;;;;;27.75;10.15;;;;;;;17.98;52.99;102077.97;5029047;28;20048;-60
2022/05/14 08:07:57;;;;;;;22.67;10.38;;;;;;;17.98;52.64;102074.34;5028031;28;20033;-60
2022/05/14 08:10:23;;;;;;;24.45;10.82;;;;;;;18.04;52.88;102076.06;5013079;28;20029;-62
2022/05/14 08:12:51;;;;;;;26.00;9.85;;;;;;;18.15;52.79;102072.16;5013093;28;20374;-61
2022/05/14 08:15:25;;;;;;;21.13;9.63;;;;;;;18.28;52.77;102080.09;5012443;28;20393;-61
2022/05/14 08:17:51;;;;;;;24.20;9.93;;;;;;;18.39;52.12;102079.03;5012853;28;20038;-61
2022/05/14 08:20:17;;;;;;;19.75;9.65;;;;;;;18.43;51.76;102073.69;5011495;28;20049;-61
2022/05/14 08:25:27;;;;;;;24.60;9.82;;;;;;;18.62;51.36;102071.19;5012456;28;20152;-61
2022/05/14 08:27:53;;;;;;;15.52;9.25;;;;;;;18.63;50.79;102070.09;5012233;28;20097;-61
2022/05/14 08:30:24;;;;;;;19.77;8.88;;;;;;;18.67;50.79;102068.41;5008867;28;20129;-61
2022/05/14 08:32:50;;;;;;;20.45;8.90;;;;;;;18.76;50.73;102069.56;5009684;28;20034;-61
2022/05/14 08:35:16;;;;;;;22.88;9.93;;;;;;;18.79;51.02;102066.22;5009830;28;20516;-61
2022/05/14 08:37:42;;;;;;;23.88;9.30;;;;;;;18.82;51.02;102076.91;5018190;28;20060;-62
2022/05/14 08:40:13;;;;;;;21.45;9.15;;;;;;;18.95;51.10;102089.56;5027344;28;20108;-60
2022/05/14 08:42:38;;;;;;;25.65;9.30;;;;;;;19.06;50.92;102084.78;5008920;28;20049;-61
2022/05/14 08:45:05;;;;;;;25.10;10.15;;;;;;;19.07;50.85;102078.06;5010607;28;20164;-61
2022/05/14 08:47:40;;;;;;;21.40;8.88;;;;;;;19.15;50.34;102071.84;5011660;28;20036;-61
2022/05/14 08:50:08;;;;;;;22.73;8.93;;;;;;;19.24;49.61;102075.78;5008986;28;20052;-62
2022/05/14 08:52:36;;;;;;;21.00;9.13;;;;;;;19.25;49.14;102077.47;5013953;28;20069;-63
2022/05/14 08:55:09;;;;;;;21.60;9.25;;;;;;;19.32;49.59;102071.56;5016189;28;20508;-61
2022/05/14 08:57:46;;;;;;;24.05;9.43;;;;;;;19.44;49.16;102072.09;4996751;28;20409;-62
2022/05/14 09:00:15;;;;;;;22.70;8.75;;;;;;;19.51;49.16;102074.66;5003488;28;20068;-62
2022/05/14 09:02:49;;;;;;;17.92;8.38;;;;;;;19.45;48.97;102067.31;5007203;28;20168;-62
2022/05/14 09:05:33;;;;;;;9.98;4.78;;;;;;;19.66;48.87;102071.00;5015060;28;20473;-63
2022/05/14 09:07:58;;;;;;;8.80;3.90;;;;;;;19.89;48.15;102073.19;5002335;28;20117;-63
2022/05/14 09:10:33;;;;;;;14.02;5.30;;;;;;;19.98;47.92;102073.44;5004113;28;20083;-62
2022/05/14 09:13:00;;;;;;;12.38;5.75;;;;;;;20.01;47.58;102061.59;5006173;28;20061;-64
2022/05/14 09:15:30;;;;;;;13.38;5.13;;;;;;;19.98;47.86;102062.16;5007732;28;20034;-62
2022/05/14 09:18:05;;;;;;;11.93;4.70;;;;;;;20.15;48.06;102067.44;5006307;28;20037;-63
2022/05/14 09:20:43;;;;;;;17.63;6.18;;;;;;;20.23;48.06;102058.38;5008237;28;20030;-64
2022/05/14 09:23:08;;;;;;;14.73;7.35;;;;;;;20.17;47.65;102071.69;5008201;28;20064;-63
2022/05/14 09:25:41;;;;;;;12.75;5.45;;;;;;;20.10;47.95;102073.97;5005393;28;20036;-64
2022/05/14 09:28:26;;;;;;;16.83;6.88;;;;;;;20.10;47.98;102065.50;5009093;28;20465;-65
2022/05/14 09:30:58;;;;;;;20.00;5.80;;;;;;;20.22;48.07;102068.00;5005311;28;20084;-64
2022/05/14 09:33:27;;;;;;;;;;;;;;;20.22;48.37;102059.53;5008304;28;20033;-61
2022/05/14 09:36:04;;;;;;;19.77;7.80;;;;;;;20.34;47.82;102060.03;5010526;28;19917;-62
2022/05/14 09:38:30;;;;;;;11.95;5.72;;;;;;;20.37;47.12;102056.63;5006299;28;20038;-60
2022/05/14 09:41:11;;;;;;;17.10;7.32;;;;;;;20.37;47.47;102059.47;5009681;28;20033;-61
2022/05/14 09:43:38;;;;;;;14.50;6.20;;;;;;;20.37;46.88;102056.63;5010180;28;20057;-61
2022/05/14 09:46:10;;;;;;;14.90;5.97;;;;;;;20.41;46.92;102051.25;5011593;28;20034;-61
2022/05/14 09:48:49;;;;;;;16.35;5.57;;;;;;;20.41;47.12;102045.63;5010262;28;20100;-60
2022/05/14 09:51:37;;;;;;;19.90;6.28;;;;;;;20.32;47.00;102053.84;5004158;28;20034;-60
2022/05/14 09:54:30;;;;;;;14.80;7.75;;;;;;;20.21;46.60;102053.06;5002548;28;20073;-60
2022/05/14 09:57:01;;;;;;;14.40;6.45;;;;;;;20.25;46.54;102056.13;5006298;28;20034;-60
2022/05/14 09:59:49;;;;;;;15.60;5.80;;;;;;;20.23;46.98;102061.22;5005403;28;20030;-63
2022/05/14 10:02:23;;;;;;;13.63;6.15;;;;;;;20.24;47.65;102058.13;4996594;28;20288;-63
2022/05/14 10:05:05;;;;;;;10.57;5.72;;;;;;;20.24;45.75;102049.66;5008146;28;20034;-63
2022/05/14 10:07:36;;;;;;;15.02;6.07;;;;;;;20.25;45.75;102059.81;5005013;28;20112;-63
2022/05/14 10:10:18;;;;;;;20.08;6.30;;;;;;;20.24;46.19;102057.25;5005324;28;20060;-62
2022/05/14 10:13:02;;;;;;;13.15;4.97;;;;;;;20.35;47.09;102056.06;5007467;28;20057;-63
2022/05/14 10:15:50;;;;;;;14.23;4.95;;;;;;;20.37;46.13;102062.28;5006698;28;20029;-61
2022/05/14 10:18:30;;;;;;;16.60;6.32;;;;;;;20.47;44.93;102050.09;5007735;28;20041;-63
2022/05/14 10:21:15;;;;;;;11.88;6.18;;;;;;;20.59;45.17;102061.88;5006287;28;20072;-62
2022/05/14 10:26:45;;;;;;;13.68;5.75;;;;;;;20.90;45.31;102061.69;5003780;28;20056;-60
2022/05/14 10:29:16;;;;;;;16.05;6.57;;;;;;;20.81;44.46;102053.84;5004843;28;20032;-61
2022/05/14 10:31:59;;;;;;;11.25;5.22;;;;;;;20.86;44.76;102050.13;5005683;28;20037;-61
2022/05/14 10:34:43;;;;;;;12.93;6.25;;;;;;;20.98;44.29;102050.59;5006606;28;20046;-62
2022/05/14 10:37:22;;;;;;;15.18;5.80;;;;;;;20.94;42.51;102048.66;5003438;28;20473;-62
2022/05/14 10:40:01;;;;;;;12.40;4.97;;;;;;;21.00;42.62;102050.31;5005790;28;20432;-61
2022/05/14 10:42:38;;;;;;;12.95;4.65;;;;;;;20.99;41.70;102062.75;5004056;28;20406;-61
2022/05/14 10:45:11;;;;;;;16.75;5.70;;;;;;;20.93;41.16;102055.47;5003923;28;20038;-61
2022/05/14 10:47:42;;;;;;;16.13;5.95;;;;;;;20.94;42.00;102055.16;5008784;28;20064;-61
2022/05/14 10:50:20;;;;;;;17.70;6.63;;;;;;;20.95;41.53;102045.56;5006938;28;20080;-60
2022/05/14 10:52:48;;;;;;;15.65;6.00;;;;;;;21.04;41.16;102057.91;4991322;28;20038;-60
2022/05/14 10:55:20;;;;;;;13.23;4.90;;;;;;;21.18;40.63;102057.22;4993481;28;20034;-61
2022/05/14 10:57:53;;;;;;;10.85;5.05;;;;;;;21.29;39.90;102054.00;4999587;28;20026;-60
2022/05/14 11:00:30;;;;;;;13.40;5.82;;;;;;;21.36;39.70;102055.69;4997890;28;20030;-60
2022/05/14 11:03:04;;;;;;;13.88;5.53;;;;;;;21.50;41.11;102049.06;5011565;28;20148;-60
2022/05/14 11:05:36;;;;;;;18.30;5.75;;;;;;;21.63;41.21;102049.50;5009800;28;20033;-60
2022/05/14 11:08:11;;;;;;;13.63;6.20;;;;;;;21.70;41.09;102044.34;5011952;28;20104;-60
2022/05/14 11:10:37;;;;;;;14.90;6.07;;;;;;;21.76;40.50;102054.41;5011040;28;20044;-60
2022/05/14 11:13:12;;;;;;;17.27;7.22;;;;;;;21.78;41.16;102053.00;5010868;28;20101;-60
2022/05/14 11:15:43;;;;;;;18.38;7.40;;;;;;;21.86;40.80;102048.66;5012111;28;20033;-60
2022/05/14 11:18:12;;;;;;;14.25;6.25;;;;;;;21.89;40.68;102044.38;5010533;28;20764;-60
2022/05/14 11:20:39;;;;;;;17.67;7.50;;;;;;;21.88;40.77;102046.38;5012407;28;20026;-60
2022/05/14 11:23:12;;;;;;;14.05;7.35;;;;;;;21.93;40.65;102053.94;5011265;28;20025;-60
2022/05/14 11:25:38;;;;;;;18.13;6.47;;;;;;;21.92;40.68;102053.09;5010635;28;20155;-60
2022/05/14 11:28:22;;;;;;;19.50;6.47;;;;;;;21.79;40.80;102053.81;5008360;28;20037;-61
2022/05/14 11:30:53;;;;;;;17.05;6.55;;;;;;;21.69;40.39;102054.81;5009807;28;20044;-60
2022/05/14 11:33:27;;;;;;;17.55;6.80;;;;;;;21.76;40.98;102049.59;5011452;28;20026;-60
2022/05/14 11:35:58;;;;;;;18.45;7.70;;;;;;;21.86;41.10;102050.66;5006796;28;20044;-60
2022/05/14 11:38:26;;;;;;;12.73;6.07;;;;;;;21.99;40.25;102047.09;5008610;28;20030;-59
2022/05/14 11:41:08;;;;;;;15.63;6.13;;;;;;;22.11;40.40;102049.50;5011680;28;20069;-59
2022/05/14 11:43:43;;;;;;;20.58;6.47;;;;;;;22.20;39.64;102047.69;5008783;28;20076;-60
2022/05/14 11:46:25;;;;;;;15.30;6.70;;;;;;;22.19;38.67;102048.84;5009680;28;20022;-60